Time;durP1;ratioP1;P1;durP2;ratioP2;P2;SDS_P1;SDS_P2;PMS_P1;PMS_P2;Temp;Humidity;BMP_temperature;BMP_pressure;BME280_temperature;BME280_humidity;BME280_pressure;Samples;Min_cycle;Max_cycle;Signal;HPM_P1;HPM_P2
2021/11/09 00:00:31;;;;;;;;;;;;;;;12.65;66.91;101640.91;4884132;28;98593;-58
2021/11/09 00:02:58;;;;;;;;;;;;;;;12.65;66.91;101646.31;4876071;28;98104;-58
2021/11/09 00:05:26;;;;;;;;;;;;;;;12.64;67.07;101648.19;4883982;28;99148;-65
2021/11/09 00:07:55;;;;;;;;;;;;;;;12.64;67.03;101642.78;4883853;28;98203;-66
2021/11/09 00:10:22;;;;;;;;;;;;;;;12.64;66.81;101641.97;4883844;28;97918;-58
2021/11/09 00:12:54;;;;;;;;;;;;;;;12.62;66.91;101639.53;4883907;28;97944;-64
2021/11/09 00:15:21;;;;;;;;;;;;;;;12.64;66.92;101644.69;4882843;28;99325;-66
2021/11/09 00:17:49;;;;;;;;;;;;;;;12.64;66.96;101641.97;4884061;28;107772;-58
2021/11/09 00:20:16;;;;;;;;;;;;;;;12.64;67.15;101644.69;4883452;28;118365;-58
2021/11/09 00:22:42;;;;;;;;;;;;;;;12.64;66.87;101647.38;4865734;28;113055;-66
2021/11/09 00:25:08;;;;;;;;;;;;;;;12.63;67.11;101641.16;4866950;28;109644;-58
2021/11/09 00:27:34;;;;;;;;;;;;;;;12.64;66.96;101655.50;4845662;28;99299;-66
2021/11/09 00:30:01;;;;;;;;;;;;;;;12.63;66.90;101651.97;4865510;28;128058;-58
2021/11/09 00:32:27;;;;;;;;;;;;;;;12.63;66.97;101649.28;4865491;28;97980;-58
2021/11/09 00:34:53;;;;;;;;;;;;;;;12.62;67.14;101653.06;4864395;28;116602;-58
2021/11/09 00:37:19;;;;;;;;;;;;;;;12.63;66.87;101659.28;4883207;28;122277;-58
2021/11/09 00:39:45;;;;;;;;;;;;;;;12.62;66.85;101655.75;4883555;28;127592;-58
2021/11/09 00:42:11;;;;;;;;;;;;;;;12.63;67.13;101656.56;4886745;28;98003;-67
2021/11/09 00:44:37;;;;;;;;;;;;;;;12.63;66.99;101661.97;4874528;28;98054;-58
2021/11/09 00:47:03;;;;;;;;;;;;;;;12.62;66.85;101663.06;4866936;28;98231;-58
2021/11/09 00:49:29;;;;;;;;;;;;;;;12.63;67.03;101672.81;4867202;28;124691;-58
2021/11/09 00:51:55;;;;;;;;;;;;;;;12.62;66.90;101672.00;4867198;28;114671;-66
2021/11/09 00:54:21;;;;;;;;;;;;;;;12.62;66.99;101676.59;4850830;28;98584;-58
2021/11/09 00:56:47;;;;;;;;;;;;;;;12.62;66.88;101682.81;4868236;28;98332;-63
2021/11/09 00:59:13;;;;;;;;;;;;;;;12.62;66.97;101676.59;4850747;28;98147;-58
2021/11/09 01:01:39;;;;;;;;;;;;;;;12.61;66.81;101675.75;4870039;28;98137;-66
2021/11/09 01:04:05;;;;;;;;;;;;;;;12.62;67.02;101673.88;4866368;28;128797;-57
2021/11/09 01:06:31;;;;;;;;;;;;;;;12.62;66.96;101682.00;4869276;28;120017;-66
2021/11/09 01:08:57;;;;;;;;;;;;;;;12.62;66.99;101679.28;4868309;28;111984;-66
2021/11/09 01:11:23;;;;;;;;;;;;;;;12.62;66.98;101684.69;4867615;28;116891;-58
2021/11/09 01:13:49;;;;;;;;;;;;;;;12.61;66.72;101685.75;4848484;28;126957;-58
2021/11/09 01:16:15;;;;;;;;;;;;;;;12.60;66.90;101684.94;4849549;28;108904;-66
2021/11/09 01:18:44;;;;;;;;;;;;;;;12.61;66.94;101683.03;4880211;28;97865;-66
2021/11/09 01:21:14;;;;;;;;;;;;;;;12.61;66.98;101691.97;4869776;28;97733;-66
2021/11/09 01:23:44;;;;;;;;;;;;;;;12.60;66.92;101693.03;4886149;28;99149;-58
2021/11/09 01:26:10;;;;;;;;;;;;;;;12.60;66.83;101692.22;4886336;28;98278;-58
2021/11/09 01:28:37;;;;;;;;;;;;;;;12.60;66.84;101687.63;4874973;28;120316;-58
2021/11/09 01:31:03;;;;;;;;;;;;;;;12.60;66.98;101690.34;4868746;28;98054;-58
2021/11/09 01:33:29;;;;;;;;;;;;;;;12.59;66.84;101691.41;4867965;28;115563;-66
2021/11/09 01:35:55;;;;;;;;;;;;;;;12.59;66.87;101685.19;4867529;28;128333;-66
2021/11/09 01:38:21;;;;;;;;;;;;;;;12.59;66.94;101696.00;4866830;28;126330;-67
2021/11/09 01:40:47;;;;;;;;;;;;;;;12.59;66.97;101696.00;4866642;28;117000;-58
2021/11/09 01:43:14;;;;;;;;;;;;;;;12.58;66.97;101691.69;4867351;28;98461;-58
2021/11/09 01:45:40;;;;;;;;;;;;;;;12.57;66.94;101690.84;4867306;28;120501;-58
2021/11/09 01:48:06;;;;;;;;;;;;;;;12.58;66.98;101697.09;4886953;28;99385;-66
2021/11/09 01:50:34;;;;;;;;;;;;;;;12.56;67.12;101700.03;4886340;28;103466;-59
2021/11/09 01:53:00;;;;;;;;;;;;;;;12.56;66.95;101702.72;4867945;28;99381;-67
2021/11/09 01:55:27;;;;;;;;;;;;;;;12.55;66.98;101705.69;4866307;28;103466;-66
2021/11/09 01:57:53;;;;;;;;;;;;;;;12.53;66.91;101703.22;4867463;28;121119;-58
2021/11/09 02:00:23;;;;;;;;;;;;;;;12.52;66.85;101705.13;4867618;28;98554;-67
2021/11/09 02:02:50;;;;;;;;;;;;;;;12.52;66.92;101701.59;4873433;28;99337;-58
2021/11/09 02:05:16;;;;;;;;;;;;;;;12.50;66.96;101701.06;4886450;28;98404;-58
2021/11/09 02:07:53;;;;;;;;;;;;;;;12.50;66.98;101695.63;4884775;28;125918;-62
2021/11/09 02:10:23;;;;;;;;;;;;;;;12.49;66.96;101697.50;4877575;28;97849;-66
2021/11/09 02:12:49;;;;;;;;;;;;;;;12.47;66.98;101690.72;4884377;28;98567;-66
2021/11/09 02:15:15;;;;;;;;;;;;;;;12.48;66.87;101701.28;4857313;28;100267;-66
2021/11/09 02:17:42;;;;;;;;;;;;;;;12.47;67.18;101698.84;4865436;28;112605;-58
2021/11/09 02:20:10;;;;;;;;;;;;;;;12.47;67.00;101696.13;4867199;28;106673;-67
2021/11/09 02:22:36;;;;;;;;;;;;;;;12.47;66.85;101694.25;4868410;28;98177;-59
2021/11/09 02:25:04;;;;;;;;;;;;;;;12.48;67.03;101697.75;4885005;28;98899;-58
2021/11/09 02:27:30;;;;;;;;;;;;;;;12.48;67.11;101700.47;4885158;28;98245;-66
2021/11/09 02:29:56;;;;;;;;;;;;;;;12.48;67.05;101705.88;4871637;28;108329;-66
2021/11/09 02:32:22;;;;;;;;;;;;;;;12.48;67.06;101706.69;4866547;28;98288;-58
2021/11/09 02:34:48;;;;;;;;;;;;;;;12.48;67.19;101706.69;4877584;28;125681;-58
2021/11/09 02:37:15;;;;;;;;;;;;;;;12.48;67.12;101711.28;4882980;28;127579;-66
2021/11/09 02:39:41;;;;;;;;;;;;;;;12.48;66.99;101706.69;4866787;28;97872;-58
2021/11/09 02:42:12;;;;;;;;;;;;;;;12.47;67.07;101709.66;4884233;28;128256;-66
2021/11/09 02:44:38;;;;;;;;;;;;;;;12.49;67.08;101708.31;4860244;28;98321;-66
2021/11/09 02:47:07;;;;;;;;;;;;;;;12.49;66.92;101726.44;4875541;28;98996;-58
2021/11/09 02:50:17;;;;;;;;;;;;;;;12.49;66.92;101719.13;4865967;28;97890;-66
2021/11/09 02:52:24;;;;;;;;;;;;;;;12.50;66.92;101725.38;4862787;28;98646;-58
2021/11/09 02:54:53;;;;;;;;;;;;;;;12.49;67.00;101724.53;4864308;28;98621;-58
2021/11/09 02:57:27;;;;;;;;;;;;;;;12.50;66.99;101730.78;4865493;28;98044;-58
2021/11/09 03:00:28;;;;;;;;;;;;;;;12.49;67.19;101729.94;4864811;28;97876;-58
2021/11/09 03:02:49;;;;;;;;;;;;;;;12.50;67.21;101730.78;4863418;28;98943;-66
2021/11/09 03:07:54;;;;;;;;;;;;;;;12.50;67.23;101722.69;4863248;28;97840;-58
2021/11/09 03:12:46;;;;;;;;;;;;;;;12.50;67.10;101726.19;4862201;28;118547;-66
2021/11/09 03:15:13;;;;;;;;;;;;;;;12.49;67.02;101727.25;4866208;28;98608;-58
2021/11/09 03:17:54;;;;;;;;;;;;;;;12.48;67.06;101733.72;4864090;28;98201;-66
2021/11/09 03:20:32;;;;;;;;;;;;;;;12.50;67.17;101738.91;4865165;28;98564;-66
2021/11/09 03:45:36;;;;;;;;;;;;;;;12.49;67.23;101758.88;4819839;28;98193;-58
2021/11/09 03:48:10;;;;;;;;;;;;;;;12.49;67.12;101759.69;4857217;28;98984;-58
2021/11/09 03:50:38;;;;;;;;;;;;;;;12.49;67.11;101756.19;4849564;28;98671;-66
2021/11/09 03:53:13;;;;;;;;;;;;;;;12.49;67.04;101767.81;4864717;28;97876;-66
2021/11/09 03:55:53;;;;;;;;;;;;;;;12.50;67.34;101768.66;4870912;28;98223;-66
2021/11/09 04:00:53;;;;;;;;;;;;;;;12.49;67.11;101770.50;4872887;28;97891;-58
2021/11/09 04:06:00;;;;;;;;;;;;;;;12.48;67.09;101771.59;4880248;28;98095;-66
2021/11/09 04:08:38;;;;;;;;;;;;;;;12.49;67.13;101778.63;4872582;28;98363;-67
2021/11/09 04:11:17;;;;;;;;;;;;;;;12.49;67.03;101780.53;4864827;28;98047;-66
2021/11/09 04:41:11;;;;;;;;;;;;;;;12.48;67.14;101795.13;4880455;28;97890;-66
2021/11/09 05:01:05;;;;;;;;;;;;;;;12.46;67.13;101806.19;4862162;28;98299;-58
2021/11/09 05:02:31;;;;;;;;;;;;;;;12.44;67.01;101808.31;4860517;28;98115;-66
2021/11/09 05:10:27;;;;;;;;;;;;;;;12.44;67.13;101819.13;4880398;28;97998;-66
2021/11/09 05:12:53;;;;;;;;;;;;;;;12.44;67.29;101818.31;4881877;28;98032;-66
2021/11/09 05:15:20;;;;;;;;;;;;;;;12.44;67.28;101819.13;4882104;28;127287;-58
2021/11/09 05:17:45;;;;;;;;;;;;;;;12.43;66.98;101825.59;4881971;28;97748;-58
2021/11/09 05:20:11;;;;;;;;;;;;;;;12.44;67.24;101823.72;4880305;28;128035;-66
2021/11/09 05:22:38;;;;;;;;;;;;;;;12.44;67.25;101829.13;4881760;28;127352;-65
2021/11/09 05:25:04;;;;;;;;;;;;;;;12.44;67.29;101838.06;4882809;28;98003;-66
2021/11/09 05:27:30;;;;;;;;;;;;;;;12.43;67.24;101833.72;4880438;28;116409;-66
2021/11/09 05:29:57;;;;;;;;;;;;;;;12.44;67.22;101834.53;4885495;28;98983;-58
2021/11/09 05:32:23;;;;;;;;;;;;;;;12.44;67.21;101839.94;4884841;28;98466;-58
2021/11/09 05:34:49;;;;;;;;;;;;;;;12.43;67.20;101843.72;4884751;28;98141;-58
2021/11/09 05:37:21;;;;;;;;;;;;;;;12.43;67.14;101838.31;4885598;28;112497;-66
2021/11/09 05:39:51;;;;;;;;;;;;;;;12.43;67.10;101843.72;4884162;28;98542;-58
2021/11/09 05:42:17;;;;;;;;;;;;;;;12.42;67.07;101853.72;4882199;28;99196;-58
2021/11/09 05:44:43;;;;;;;;;;;;;;;12.43;67.26;101847.25;4882175;28;128267;-58
2021/11/09 05:47:09;;;;;;;;;;;;;;;12.43;67.12;101852.66;4898432;28;103168;-58
2021/11/09 05:49:35;;;;;;;;;;;;;;;12.44;67.24;101867.00;4888585;28;100337;-58
2021/11/09 05:52:01;;;;;;;;;;;;;;;12.43;67.18;101868.88;4893461;28;127623;-58
2021/11/09 05:54:28;;;;;;;;;;;;;;;12.44;67.46;101875.91;4898710;28;97932;-58
2021/11/09 05:56:53;;;;;;;;;;;;;;;12.44;67.21;101875.09;4897677;28;117710;-58
2021/11/09 05:59:19;;;;;;;;;;;;;;;12.44;67.40;101883.22;4898094;28;126810;-58
2021/11/09 06:01:47;;;;;;;;;;;;;;;12.43;67.08;101887.00;4897759;28;128260;-58
2021/11/09 06:04:15;;;;;;;;;;;;;;;12.43;67.22;101904.03;4899392;28;98346;-58
2021/11/09 06:06:41;;;;;;;;;;;;;;;12.43;67.10;101895.91;4880182;28;122247;-58
2021/11/09 06:09:08;;;;;;;;;;;;;;;12.42;67.43;101899.69;4874014;28;127535;-58
2021/11/09 06:11:34;;;;;;;;;;;;;;;12.42;66.99;101907.00;4901543;28;98290;-58
2021/11/09 06:14:00;;;;;;;;;;;;;;;12.40;67.23;101918.03;4902213;28;98123;-58
2021/11/09 06:16:26;;;;;;;;;;;;;;;12.40;67.25;101922.63;4903138;28;97958;-58
2021/11/09 06:18:51;;;;;;;;;;;;;;;12.39;67.22;101918.28;4900506;28;127519;-58
2021/11/09 06:21:17;;;;;;;;;;;;;;;12.39;67.19;101924.53;4883369;28;128312;-58
2021/11/09 06:23:43;;;;;;;;;;;;;;;12.38;67.33;101931.00;4901507;28;98586;-58
2021/11/09 06:26:09;;;;;;;;;;;;;;;12.37;67.18;101931.22;4901882;28;101237;-58
2021/11/09 06:28:35;;;;;;;;;;;;;;;12.36;67.31;101935.00;4901249;28;109016;-58
2021/11/09 06:31:01;;;;;;;;;;;;;;;12.34;67.15;101937.97;4883969;28;104598;-58
2021/11/09 06:33:29;;;;;;;;;;;;;;;12.34;67.09;101942.53;4894603;28;125753;-58
2021/11/09 06:35:55;;;;;;;;;;;;;;;12.33;67.07;101949.81;4863658;28;97722;-58
2021/11/09 06:38:21;;;;;;;;;;;;;;;12.34;67.04;101950.63;4864322;28;98494;-58
2021/11/09 06:40:47;;;;;;;;;;;;;;;12.33;66.88;101955.22;4881261;28;98759;-58
2021/11/09 06:43:13;;;;;;;;;;;;;;;12.34;66.95;101961.44;4881471;28;119901;-58
2021/11/09 06:45:39;;;;;;;;;;;;;;;12.34;67.02;101959.59;4882279;28;98162;-58
2021/11/09 06:48:05;;;;;;;;;;;;;;;12.35;66.82;101963.94;4880831;28;98121;-58
2021/11/09 06:50:32;;;;;;;;;;;;;;;12.34;66.79;101970.41;4866263;28;98294;-58
2021/11/09 06:52:58;;;;;;;;;;;;;;;12.36;66.88;101975.56;4845821;28;98325;-58
2021/11/09 06:55:24;;;;;;;;;;;;;;;12.38;66.85;101981.53;4868704;28;98609;-58
2021/11/09 06:57:50;;;;;;;;;;;;;;;12.39;66.83;101980.50;4862794;28;98187;-58
2021/11/09 07:00:20;;;;;;;;;;;;;;;12.41;66.64;101983.75;4863610;28;107574;-58
2021/11/09 07:02:46;;;;;;;;;;;;;;;12.42;66.83;101988.94;4863511;28;98570;-58
2021/11/09 07:05:12;;;;;;;;;;;;;;;12.43;66.72;101993.28;4879823;28;108781;-58
2021/11/09 07:07:39;;;;;;;;;;;;;;;12.48;66.67;102001.47;4880848;28;119353;-58
2021/11/09 07:10:07;;;;;;;;;;;;;;;12.52;66.26;101999.09;4880170;28;99002;-58
2021/11/09 07:12:33;;;;;;;;;;;;;;;12.53;66.68;102001.56;4880689;28;97954;-58
2021/11/09 07:14:59;;;;;;;;;;;;;;;12.58;66.62;102014.38;4881445;28;114201;-58
2021/11/09 07:17:25;;;;;;;;;;;;;;;12.62;66.44;102020.94;4881813;28;98878;-58
2021/11/09 07:19:52;;;;;;;;;;;;;;;12.67;66.32;102018.31;4878492;28;128149;-58
2021/11/09 07:22:19;;;;;;;;;;;;;;;12.71;66.28;102014.06;4882055;28;98489;-58
2021/11/09 07:24:46;;;;;;;;;;;;;;;12.79;66.12;102023.66;4882119;28;97778;-58
2021/11/09 07:27:12;;;;;;;;;;;;;;;12.85;66.02;102025.41;4864625;28;98107;-58
2021/11/09 07:29:44;;;;;;;;;;;;;;;12.96;66.02;102031.78;4861917;28;115184;-58
2021/11/09 07:32:10;;;;;;;;;;;;;;;13.07;65.79;102036.31;4862610;28;99474;-58
2021/11/09 07:34:36;;;;;;;;;;;;;;;13.17;65.57;102030.25;4862741;28;98164;-58
2021/11/09 07:37:02;;;;;;;;;;;;;;;13.27;65.62;102043.97;4869948;28;99283;-58
2021/11/09 07:39:28;;;;;;;;;;;;;;;13.43;65.37;102040.41;4872025;28;121094;-58
2021/11/09 07:41:54;;;;;;;;;;;;;;;13.62;65.01;102043.66;4876409;28;127927;-58
2021/11/09 07:44:20;;;;;;;;;;;;;;;13.87;64.50;102045.91;4881289;28;97795;-58
2021/11/09 07:46:46;;;;;;;;;;;;;;;14.14;64.39;102043.25;4879065;28;97779;-58
2021/11/09 07:49:12;;;;;;;;;;;;;;;14.50;63.83;102046.38;4877514;28;127235;-58
2021/11/09 07:51:38;;;;;;;;;;;;;;;14.78;63.22;102056.19;4861476;28;123297;-58
2021/11/09 07:54:05;;;;;;;;;;;;;;;15.00;62.94;102047.94;4879509;28;98998;-58
2021/11/09 07:56:33;;;;;;;;;;;;;;;15.32;62.66;102056.06;4862743;28;98565;-58
2021/11/09 07:59:12;;;;;;;;;;;;;;;15.73;62.25;102053.66;4861727;28;98382;-58
2021/11/09 08:04:28;;;;;;;;;;;;;;;17.10;59.99;102058.69;4861471;28;97810;-58
2021/11/09 08:06:59;;;;;;;;;;;;;;;18.11;58.49;102058.75;4864581;28;98395;-58
2021/11/09 08:09:28;;;;;;;;;;;;;;;18.81;57.42;102066.84;4864797;28;98650;-65
2021/11/09 08:11:54;;;;;;;;;;;;;;;19.64;56.13;102081.44;4864370;28;98399;-66
2021/11/09 08:14:21;;;;;;;;;;;;;;;19.37;57.74;102078.13;4883967;28;97834;-59
2021/11/09 08:16:47;;;;;;;;;;;;;;;18.87;59.19;102079.38;4881099;28;98974;-58
2021/11/09 08:19:14;;;;;;;;;;;;;;;18.35;60.20;102089.75;4864801;28;97612;-66
2021/11/09 08:21:40;;;;;;;;;;;;;;;17.99;61.06;102088.25;4864478;28;98069;-59
2021/11/09 08:24:07;;;;;;;;;;;;;;;17.76;61.35;102095.13;4865734;28;111295;-66
2021/11/09 08:26:33;;;;;;;;;;;;;;;17.40;61.68;102095.97;4829818;28;118926;-67
2021/11/09 08:29:05;;;;;;;;;;;;;;;17.10;62.31;102096.81;4864043;28;98643;-58
2021/11/09 08:31:32;;;;;;;;;;;;;;;16.86;62.58;102103.88;4863155;28;99057;-66
2021/11/09 08:33:59;;;;;;;;;;;;;;;16.69;62.82;102101.34;4870207;28;97924;-67
2021/11/09 08:36:29;;;;;;;;;;;;;;;16.62;62.81;102106.22;4883573;28;98305;-59
2021/11/09 08:38:56;;;;;;;;;;;;;;;16.56;62.76;102104.59;4858992;28;98758;-58
2021/11/09 08:41:26;;;;;;;;;;;;;;;16.52;62.66;102106.22;4864596;28;97840;-58
2021/11/09 08:44:05;;;;;;;;;;;;;;;16.60;62.55;102105.69;4865122;28;97946;-66
2021/11/09 08:46:36;;;;;;;;;;;;;;;16.78;62.09;102109.84;4876846;28;99396;-66
2021/11/09 08:49:03;;;;;;;;;;;;;;;16.66;62.55;102102.72;4875531;28;99818;-58
2021/11/09 08:51:29;;;;;;;;;;;;;;;16.82;62.21;102108.22;4878543;28;98526;-66
2021/11/09 08:54:10;;;;;;;;;;;;;;;16.78;62.41;102115.28;4864323;28;97847;-58
2021/11/09 09:04:51;;;;;;;;;;;;;;;16.73;62.66;102117.97;4864984;28;97844;-58
2021/11/09 09:07:17;;;;;;;;;;;;;;;16.65;63.23;102120.13;4867020;28;97911;-66
2021/11/09 09:09:43;;;;;;;;;;;;;;;16.65;63.00;102113.88;4867751;28;127780;-67
2021/11/09 09:12:09;;;;;;;;;;;;;;;16.65;62.98;102119.31;4866230;28;97984;-58
2021/11/09 09:14:35;;;;;;;;;;;;;;;16.83;62.75;102120.75;4866355;28;122573;-58
2021/11/09 09:17:02;;;;;;;;;;;;;;;16.87;62.58;102130.84;4866036;28;97865;-59
2021/11/09 09:19:34;;;;;;;;;;;;;;;16.95;62.55;102126.78;4870134;28;98982;-59
2021/11/09 09:22:12;;;;;;;;;;;;;;;17.20;62.22;102116.97;4868140;28;98004;-66
2021/11/09 09:24:46;;;;;;;;;;;;;;;17.50;62.02;102108.78;4866374;28;98130;-58
2021/11/09 09:28:18;;;;;;;;;;;;;;;17.83;61.67;102121.03;4865599;28;98757;-58
2021/11/09 09:54:44;;;;;;;;;;;;;;;18.91;62.61;102117.88;4847231;28;98334;-67
2021/11/09 09:57:13;;;;;;;;;;;;;;;18.86;62.88;102118.69;4885177;28;97950;-59
2021/11/09 09:59:41;;;;;;;;;;;;;;;18.83;63.10;102122.00;4885952;28;98642;-66
2021/11/09 10:02:24;;;;;;;;;;;;;;;18.80;62.97;102117.13;4885810;28;97805;-67
2021/11/09 10:05:07;;;;;;;;;;;;;;;18.75;63.06;102114.41;4885802;28;98557;-67
2021/11/09 10:07:34;;;;;;;;;;;;;;;18.71;63.18;102124.28;4892365;28;98221;-66
2021/11/09 10:10:09;;;;;;;;;;;;;;;18.68;63.41;102133.81;4904574;28;97996;-67
2021/11/09 10:12:35;;;;;;;;;;;;;;;18.63;63.17;102126.47;4867802;28;98193;-67
2021/11/09 10:15:07;;;;;;;;;;;;;;;18.61;63.41;102128.66;4864135;28;107466;-66
2021/11/09 10:17:33;;;;;;;;;;;;;;;18.65;63.05;102132.44;4869330;28;98274;-67
2021/11/09 10:20:08;;;;;;;;;;;;;;;18.70;63.18;102126.16;4886064;28;98020;-66
2021/11/09 10:22:33;;;;;;;;;;;;;;;18.69;63.07;102123.69;4886254;28;98122;-67
2021/11/09 10:25:03;;;;;;;;;;;;;;;18.54;63.48;102117.22;4885788;28;125399;-67
2021/11/09 10:27:30;;;;;;;;;;;;;;;18.57;63.30;102119.38;4884218;28;118600;-67
2021/11/09 10:29:56;;;;;;;;;;;;;;;18.53;63.57;102112.84;4886813;28;98871;-66
2021/11/09 10:32:25;;;;;;;;;;;;;;;18.52;63.37;102113.97;4884583;28;128178;-66
2021/11/09 10:34:52;;;;;;;;;;;;;;;18.51;63.37;102106.88;4886030;28;98055;-66
2021/11/09 10:37:26;;;;;;;;;;;;;;;18.51;63.44;102103.31;4886826;28;97782;-67
2021/11/09 10:39:54;;;;;;;;;;;;;;;18.51;63.63;102104.16;4886353;28;98420;-67
2021/11/09 10:42:22;;;;;;;;;;;;;;;18.50;63.57;102097.03;4885623;28;98779;-58
2021/11/09 10:45:00;;;;;;;;;;;;;;;18.52;63.22;102099.50;4884624;28;97843;-67
2021/11/09 10:47:27;;;;;;;;;;;;;;;18.53;63.33;102101.13;4883673;28;98143;-59
2021/11/09 10:49:58;;;;;;;;;;;;;;;18.54;63.26;102089.09;4884468;28;98875;-66
2021/11/09 10:52:30;;;;;;;;;;;;;;;18.53;63.30;102095.66;4884135;28;98236;-58
2021/11/09 10:55:14;;;;;;;;;;;;;;;18.53;63.50;102087.47;4883699;28;98540;-59
2021/11/09 10:57:52;;;;;;;;;;;;;;;18.52;63.61;102083.13;4866430;28;97913;-58
2021/11/09 11:00:59;;;;;;;;;;;;;;;18.46;63.52;102082.31;4884334;28;98452;-58
2021/11/09 11:06:20;;;;;;;;;;;;;;;18.54;63.49;102078.19;4862024;28;97856;-58
2021/11/09 11:09:11;;;;;;;;;;;;;;;18.58;63.37;102084.69;4846412;28;97827;-66
2021/11/09 11:11:44;;;;;;;;;;;;;;;18.58;63.48;102082.78;4865339;28;98274;-59
2021/11/09 11:14:12;;;;;;;;;;;;;;;18.46;63.52;102082.31;4864679;28;98715;-58
2021/11/09 11:16:51;;;;;;;;;;;;;;;18.51;63.65;102087.75;4865532;28;97785;-66
2021/11/09 11:19:44;;;;;;;;;;;;;;;18.47;63.57;102089.44;4848241;28;98156;-66
2021/11/09 11:22:29;;;;;;;;;;;;;;;18.32;64.06;102081.31;4863348;28;98958;-58
2021/11/09 11:24:57;;;;;;;;;;;;;;;18.13;64.50;102081.94;4847574;28;98361;-66
2021/11/09 11:27:26;;;;;;;;;;;;;;;18.06;64.57;102095.06;4861730;28;122261;-66
2021/11/09 11:29:52;;;;;;;;;;;;;;;18.05;64.51;102090.69;4832546;28;98013;-66
2021/11/09 11:32:22;;;;;;;;;;;;;;;18.03;64.33;102089.34;4831201;28;97957;-66
2021/11/09 11:34:48;;;;;;;;;;;;;;;18.01;64.37;102086.09;4866064;28;97990;-59
2021/11/09 11:37:15;;;;;;;;;;;;;;;17.99;64.21;102085.53;4881119;28;118327;-66
2021/11/09 11:39:41;;;;;;;;;;;;;;;17.93;64.48;102083.94;4883171;28;97913;-58
2021/11/09 11:42:11;;;;;;;;;;;;;;;17.82;64.86;102081.22;4883384;28;98266;-58
2021/11/09 11:44:38;;;;;;;;;;;;;;;17.75;64.77;102080.69;4881954;28;98079;-66
2021/11/09 11:47:10;;;;;;;;;;;;;;;17.68;64.89;102080.13;4881985;28;97730;-58
2021/11/09 11:49:42;;;;;;;;;;;;;;;17.63;65.14;102085.59;4864688;28;98006;-58
2021/11/09 11:52:34;;;;;;;;;;;;;;;17.60;65.15;102081.50;4883328;28;98535;-66
2021/11/09 11:55:04;;;;;;;;;;;;;;;17.57;65.09;102082.06;4872338;28;97985;-58
2021/11/09 11:57:50;;;;;;;;;;;;;;;17.57;64.94;102082.06;4863736;28;98130;-58
2021/11/09 12:00:40;;;;;;;;;;;;;;;17.46;65.08;102085.91;4862353;28;109237;-58
2021/11/09 12:03:18;;;;;;;;;;;;;;;17.33;65.27;102079.13;4862834;28;99290;-59
2021/11/09 12:05:47;;;;;;;;;;;;;;;17.22;65.65;102074.75;4874256;28;98978;-66
2021/11/09 12:08:15;;;;;;;;;;;;;;;17.15;65.72;102076.94;4863990;28;127435;-66
2021/11/09 12:10:51;;;;;;;;;;;;;;;17.10;65.72;102074.22;4882506;28;108134;-66
2021/11/09 12:13:22;;;;;;;;;;;;;;;17.03;65.77;102071.75;4882105;28;104544;-58
2021/11/09 12:16:01;;;;;;;;;;;;;;;17.03;65.65;102068.22;4883973;28;100769;-66
2021/11/09 12:18:38;;;;;;;;;;;;;;;17.06;65.47;102063.03;4864165;28;97864;-58
2021/11/09 12:21:20;;;;;;;;;;;;;;;17.09;65.43;102067.91;4868606;28;97806;-66
2021/11/09 12:24:09;;;;;;;;;;;;;;;17.07;65.45;102059.22;4864234;28;98774;-66
2021/11/09 12:26:45;;;;;;;;;;;;;;;17.05;65.51;102055.94;4864263;28;98483;-66
2021/11/09 12:29:36;;;;;;;;;;;;;;;17.05;65.41;102060.56;4862128;28;98494;-66
2021/11/09 12:32:20;;;;;;;;;;;;;;;16.98;65.58;102055.41;4866823;28;97979;-58
2021/11/09 12:34:57;;;;;;;;;;;;;;;16.96;65.78;102052.13;4868237;28;98122;-66
2021/11/09 12:37:23;;;;;;;;;;;;;;;17.03;65.65;102055.41;4861980;28;99478;-58
2021/11/09 12:39:49;;;;;;;;;;;;;;;17.00;65.76;102052.41;4869606;28;98502;-66
2021/11/09 12:42:15;;;;;;;;;;;;;;;16.97;65.91;102053.75;4863254;28;122770;-66
2021/11/09 12:44:41;;;;;;;;;;;;;;;16.96;66.06;102048.59;4862660;28;98304;-58
2021/11/09 12:47:11;;;;;;;;;;;;;;;16.97;66.00;102045.59;4881594;28;128409;-66
2021/11/09 12:49:39;;;;;;;;;;;;;;;16.98;65.85;102046.41;4879841;28;97961;-58
2021/11/09 12:52:05;;;;;;;;;;;;;;;16.96;65.90;102049.41;4864111;28;97929;-58
2021/11/09 12:54:33;;;;;;;;;;;;;;;16.95;65.69;102045.06;4880262;28;98246;-58
2021/11/09 12:57:04;;;;;;;;;;;;;;;16.92;66.01;102045.59;4881751;28;97994;-58
2021/11/09 12:59:42;;;;;;;;;;;;;;;16.94;65.79;102048.88;4858564;28;98067;-67
2021/11/09 13:02:16;;;;;;;;;;;;;;;16.99;65.69;102043.44;4863741;28;98106;-58
2021/11/09 13:10:17;;;;;;;;;;;;;;;17.20;65.24;102046.94;4845124;28;100099;-58
2021/11/09 13:12:44;;;;;;;;;;;;;;;17.19;65.47;102042.59;4864995;28;98080;-58
2021/11/09 13:15:14;;;;;;;;;;;;;;;17.17;65.52;102047.50;4880434;28;98933;-58
2021/11/09 13:17:46;;;;;;;;;;;;;;;17.09;65.69;102037.97;4875684;28;98564;-66
2021/11/09 13:20:34;;;;;;;;;;;;;;;17.04;65.79;102042.59;4862272;28;98579;-66
2021/11/09 13:23:31;;;;;;;;;;;;;;;16.95;65.85;102036.06;4863004;28;97853;-58
2021/11/09 13:25:59;;;;;;;;;;;;;;;16.90;66.03;102040.44;4854212;28;98450;-66
2021/11/09 13:28:36;;;;;;;;;;;;;;;16.88;65.78;102037.16;4865932;28;98645;-58
2021/11/09 13:31:10;;;;;;;;;;;;;;;16.87;65.78;102040.97;4881691;28;98052;-66
2021/11/09 13:33:39;;;;;;;;;;;;;;;16.87;65.70;102043.69;4881222;28;97894;-58
2021/11/09 13:36:05;;;;;;;;;;;;;;;16.89;65.60;102041.50;4881021;28;98793;-66
2021/11/09 13:38:35;;;;;;;;;;;;;;;16.90;65.69;102042.34;4878964;28;121514;-66
2021/11/09 13:41:15;;;;;;;;;;;;;;;16.89;65.69;102041.50;4882453;28;98143;-66
2021/11/09 13:43:42;;;;;;;;;;;;;;;16.89;65.45;102041.50;4881205;28;97830;-66
2021/11/09 13:46:14;;;;;;;;;;;;;;;16.86;65.59;102031.19;4873699;28;97847;-66
2021/11/09 13:48:42;;;;;;;;;;;;;;;16.82;65.77;102038.25;4863880;28;103222;-66
2021/11/09 13:51:13;;;;;;;;;;;;;;;16.76;65.87;102030.34;4832030;28;98877;-58
2021/11/09 13:53:41;;;;;;;;;;;;;;;16.70;65.81;102032.19;4866553;28;103382;-66
2021/11/09 13:56:23;;;;;;;;;;;;;;;16.65;65.97;102033.00;4868605;28;98599;-67
2021/11/09 13:59:00;;;;;;;;;;;;;;;16.61;66.02;102037.38;4867147;28;98877;-58
2021/11/09 14:01:57;;;;;;;;;;;;;;;16.55;65.87;102034.94;4865194;28;98529;-58
2021/11/09 14:04:57;;;;;;;;;;;;;;;16.52;65.98;102033.53;4865953;28;97992;-58
2021/11/09 14:07:44;;;;;;;;;;;;;;;16.47;66.14;102036.28;4865651;28;98438;-66
2021/11/09 14:12:55;;;;;;;;;;;;;;;16.34;66.05;102032.13;4870812;28;97949;-66
2021/11/09 14:18:14;;;;;;;;;;;;;;;16.20;66.26;102023.69;4882506;28;98294;-66
2021/11/09 14:21:00;;;;;;;;;;;;;;;16.15;66.19;102023.66;4865670;28;98555;-58
2021/11/09 14:23:28;;;;;;;;;;;;;;;16.09;66.16;102018.47;4866055;28;98135;-58
2021/11/09 14:25:54;;;;;;;;;;;;;;;16.03;66.32;102017.63;4884485;28;98576;-58
2021/11/09 14:28:47;;;;;;;;;;;;;;;15.97;66.32;102015.97;4872653;28;123835;-58
2021/11/09 14:31:26;;;;;;;;;;;;;;;15.90;66.27;102009.97;4882815;28;98331;-58
2021/11/09 14:33:54;;;;;;;;;;;;;;;15.84;66.39;102006.41;4883493;28;98404;-58
2021/11/09 14:36:32;;;;;;;;;;;;;;;15.78;66.34;102007.47;4884922;28;97835;-66
2021/11/09 14:39:21;;;;;;;;;;;;;;;15.72;66.49;102005.81;4875240;28;98576;-66
2021/11/09 14:42:27;;;;;;;;;;;;;;;15.67;66.51;102005.78;4866214;28;98851;-59
2021/11/09 14:44:54;;;;;;;;;;;;;;;15.60;66.49;102010.59;4874111;28;98123;-66
2021/11/09 14:47:20;;;;;;;;;;;;;;;15.55;66.68;102008.69;4864485;28;98048;-66
2021/11/09 14:49:57;;;;;;;;;;;;;;;15.49;66.38;102004.31;4866850;28;106765;-66
2021/11/09 14:52:28;;;;;;;;;;;;;;;15.44;66.33;102006.97;4865227;28;98360;-66
2021/11/09 14:55:18;;;;;;;;;;;;;;;15.39;66.44;102007.78;4864773;28;98325;-58
2021/11/09 14:57:45;;;;;;;;;;;;;;;15.34;66.50;102006.94;4865292;28;97898;-58
2021/11/09 15:00:11;;;;;;;;;;;;;;;15.29;66.94;102009.59;4872765;28;99215;-58